createdAt,value
2019-05-10T00:01:54.927Z,90.70
2019-05-10T00:04:42.613Z,91.40
2019-05-10T00:07:34.155Z,91.40
2019-05-10T00:10:01.027Z,91.50
2019-05-10T00:12:32.372Z,92.00
2019-05-10T00:15:04.008Z,92.30
2019-05-10T00:17:38.476Z,92.70
2019-05-10T00:20:08.148Z,92.30
2019-05-10T00:22:38.159Z,92.60
2019-05-10T00:25:07.937Z,92.60
2019-05-10T00:27:36.843Z,92.80
2019-05-10T00:30:08.507Z,93.10
2019-05-10T00:32:39.411Z,93.30
2019-05-10T00:35:08.867Z,93.10
2019-05-10T00:37:39.441Z,93.50
2019-05-10T00:40:09.565Z,92.80
2019-05-10T00:42:38.311Z,93.40
2019-05-10T00:45:07.908Z,93.60
2019-05-10T00:47:36.640Z,93.90
2019-05-10T00:50:08.770Z,93.40
2019-05-10T00:52:39.864Z,93.60
2019-05-10T00:55:18.627Z,93.60
2019-05-10T00:57:40.571Z,93.90
2019-05-10T01:00:11.824Z,93.70
2019-05-10T01:02:40.628Z,93.80
2019-05-10T01:05:09.434Z,93.90
2019-05-10T01:07:38.887Z,93.90
2019-05-10T01:10:09.375Z,93.70
2019-05-10T01:12:38.197Z,94.10
2019-05-10T01:15:09.994Z,93.90
2019-05-10T01:17:38.883Z,94.00
2019-05-10T01:20:07.980Z,94.20
2019-05-10T01:22:37.668Z,94.30
2019-05-10T01:25:06.936Z,94.40
2019-05-10T01:27:37.348Z,94.90
2019-05-10T01:30:06.933Z,94.60
2019-05-10T01:32:35.921Z,94.70
2019-05-10T01:35:06.697Z,94.50
2019-05-10T01:37:35.552Z,94.60
2019-05-10T01:40:05.967Z,94.70
2019-05-10T01:42:36.292Z,94.50
2019-05-10T01:45:07.713Z,94.60
2019-05-10T01:47:36.405Z,94.50
2019-05-10T01:50:09.112Z,94.60
2019-05-10T01:52:37.830Z,94.50
2019-05-10T01:55:08.723Z,94.60
2019-05-10T01:57:40.244Z,94.80
2019-05-10T02:00:10.567Z,94.70
2019-05-10T02:02:41.372Z,94.70
2019-05-10T02:05:10.247Z,94.70
2019-05-10T02:07:40.322Z,94.70
2019-05-10T02:10:11.903Z,94.90
2019-05-10T02:12:43.238Z,95.00
2019-05-10T02:15:12.692Z,94.80
2019-05-10T02:17:44.083Z,94.70
2019-05-10T02:20:12.977Z,94.90
2019-05-10T02:22:42.890Z,94.80
2019-05-10T02:25:11.808Z,94.80
2019-05-10T02:27:40.487Z,94.80
2019-05-10T02:30:09.244Z,95.30
2019-05-10T02:32:38.003Z,95.20
2019-05-10T02:35:10.131Z,95.10
2019-05-10T02:37:39.426Z,95.30
2019-05-10T02:40:09.712Z,95.40
2019-05-10T02:42:41.381Z,95.50
2019-05-10T02:45:10.884Z,95.30
2019-05-10T02:47:44.693Z,95.40
2019-05-10T02:50:13.609Z,95.40
2019-05-10T02:52:42.274Z,95.60
2019-05-10T02:55:12.368Z,95.60
2019-05-10T02:57:47.840Z,95.60
2019-05-10T03:00:17.178Z,95.70
2019-05-10T03:02:48.409Z,95.70
2019-05-10T03:05:21.290Z,95.50
2019-05-10T03:07:52.946Z,95.60
2019-05-10T03:10:22.782Z,95.60
2019-05-10T03:12:53.096Z,95.70
2019-05-10T03:15:23.301Z,95.90
2019-05-10T03:17:55.963Z,96.10
2019-05-10T03:20:25.200Z,96.30
2019-05-10T03:22:55.040Z,96.80
2019-05-10T03:25:24.620Z,96.60
2019-05-10T03:27:53.772Z,96.60
2019-05-10T03:30:22.677Z,96.80
2019-05-10T03:32:52.317Z,96.70
2019-05-10T03:35:22.642Z,96.80
2019-05-10T03:37:51.412Z,96.80
2019-05-10T03:40:22.819Z,96.90
2019-05-10T03:42:53.505Z,96.80
2019-05-10T03:45:22.201Z,96.90
2019-05-10T03:47:51.015Z,96.80
2019-05-10T03:50:19.674Z,96.90
2019-05-10T03:52:51.934Z,97.10
2019-05-10T03:55:18.688Z,97.30
2019-05-10T03:57:48.372Z,96.90
2019-05-10T04:00:20.386Z,96.80
2019-05-10T04:02:49.225Z,96.80
2019-05-10T04:05:18.613Z,96.80
2019-05-10T04:07:47.459Z,96.50
2019-05-10T04:10:20.715Z,96.70
2019-05-10T04:12:47.057Z,96.90
2019-05-10T04:15:16.699Z,97.10
2019-05-10T04:17:49.988Z,97.30
2019-05-10T04:20:16.112Z,97.50
2019-05-10T04:22:45.291Z,97.00
2019-05-10T04:25:14.309Z,97.30
2019-05-10T04:27:46.049Z,97.00
2019-05-10T04:30:14.809Z,97.10
2019-05-10T04:32:45.561Z,97.20
2019-05-10T04:35:14.558Z,97.20
2019-05-10T04:37:43.259Z,97.60
2019-05-10T04:40:12.545Z,97.70
2019-05-10T04:42:43.671Z,97.50
2019-05-10T04:45:13.655Z,97.50
2019-05-10T04:47:46.326Z,97.80
2019-05-10T04:50:14.978Z,97.70
2019-05-10T04:52:44.036Z,97.60
2019-05-10T04:55:14.262Z,97.60
2019-05-10T04:57:50.503Z,97.40
2019-05-10T05:00:19.666Z,97.60
2019-05-10T05:02:52.003Z,98.20
2019-05-10T05:05:21.529Z,98.30
2019-05-10T05:07:51.907Z,98.50
2019-05-10T05:10:22.368Z,98.30
2019-05-10T05:12:51.924Z,98.00
2019-05-10T05:15:21.889Z,98.00
2019-05-10T05:17:50.491Z,97.00
2019-05-10T05:20:22.596Z,97.20
2019-05-10T05:22:51.455Z,96.90
2019-05-10T05:25:22.053Z,97.20
2019-05-10T05:28:06.451Z,97.10
2019-05-10T05:30:23.841Z,97.50
2019-05-10T05:32:52.579Z,97.00
2019-05-10T05:35:25.215Z,96.90
2019-05-10T05:37:54.620Z,95.90
2019-05-10T05:40:25.149Z,96.20
2019-05-10T05:42:57.724Z,96.10
2019-05-10T05:45:34.140Z,96.70
2019-05-10T05:48:16.178Z,96.60
2019-05-10T05:50:45.508Z,96.30
2019-05-10T05:53:44.666Z,95.00
2019-05-10T05:56:14.233Z,94.70
2019-05-10T05:58:44.614Z,95.30
2019-05-10T06:01:24.724Z,95.80
2019-05-10T06:03:51.172Z,96.00
2019-05-10T06:06:23.529Z,95.80
2019-05-10T06:08:59.675Z,95.00
2019-05-10T06:11:35.832Z,95.60
2019-05-10T06:14:10.889Z,94.40
2019-05-10T06:16:39.604Z,95.10
2019-05-10T06:19:09.586Z,95.00
2019-05-10T06:21:42.121Z,94.80
2019-05-10T06:24:16.877Z,95.00
2019-05-10T06:26:50.104Z,95.30
2019-05-10T06:29:21.780Z,94.70
2019-05-10T06:31:51.425Z,94.00
2019-05-10T06:34:40.317Z,93.90
2019-05-10T06:37:22.868Z,93.80
2019-05-10T06:39:52.051Z,93.90
2019-05-10T06:42:32.306Z,94.30
2019-05-10T06:45:04.892Z,94.60
2019-05-10T06:47:47.429Z,94.40
2019-05-10T06:50:15.824Z,93.50
2019-05-10T06:52:47.850Z,93.10
2019-05-10T06:55:17.689Z,93.20
2019-05-10T06:57:50.390Z,93.30
2019-05-10T07:00:20.595Z,91.70
2019-05-10T07:02:52.995Z,91.70
2019-05-10T07:05:24.621Z,89.90
2019-05-10T07:08:00.644Z,88.30
2019-05-10T07:10:26.791Z,85.60
2019-05-10T07:13:10.916Z,85.40
2019-05-10T07:15:44.864Z,84.50
2019-05-10T07:18:16.780Z,85.00
2019-05-10T07:20:47.662Z,84.50
2019-05-10T07:23:20.855Z,85.70
2019-05-10T07:25:49.908Z,86.90
2019-05-10T07:28:18.680Z,85.00
2019-05-10T07:30:48.968Z,86.50
2019-05-10T07:33:22.496Z,87.70
2019-05-10T07:35:53.213Z,90.00
2019-05-10T07:38:30.653Z,89.70
2019-05-10T07:40:54.874Z,90.70
2019-05-10T07:43:30.956Z,91.20
2019-05-10T07:46:06.151Z,90.70
2019-05-10T07:48:34.543Z,90.70
2019-05-10T07:51:15.304Z,91.50
2019-05-10T07:53:56.823Z,91.80
2019-05-10T07:56:21.799Z,92.70
2019-05-10T07:58:53.736Z,93.00
2019-05-10T08:01:32.313Z,93.50
2019-05-10T08:03:55.161Z,91.40
2019-05-10T08:06:33.941Z,91.60
2019-05-10T08:11:54.123Z,92.10
2019-05-10T08:14:30.284Z,88.60
2019-05-10T08:17:05.864Z,90.80
2019-05-10T08:19:37.546Z,89.40
2019-05-10T08:22:08.805Z,89.80
2019-05-10T08:24:44.629Z,90.50
2019-05-10T08:27:14.798Z,90.10
2019-05-10T08:29:43.005Z,90.40
2019-05-10T08:32:29.954Z,88.80
2019-05-10T08:34:57.704Z,90.20
2019-05-10T08:37:33.410Z,90.00
2019-05-10T08:40:03.093Z,89.90
2019-05-10T08:42:44.232Z,89.30
2019-05-10T08:45:09.096Z,90.50
2019-05-10T08:47:42.619Z,90.20
2019-05-10T08:50:42.241Z,91.40
2019-05-10T08:52:56.836Z,90.70
2019-05-10T08:55:43.093Z,92.00
2019-05-10T08:58:14.097Z,92.90
2019-05-10T09:03:47.125Z,93.00
2019-05-10T09:06:17.926Z,93.00
2019-05-10T09:08:53.014Z,93.80
2019-05-10T09:11:32.850Z,93.00
2019-05-10T09:14:04.794Z,92.90
2019-05-10T09:16:44.208Z,93.50
2019-05-10T09:19:12.448Z,93.50
2019-05-10T09:21:49.877Z,93.60
2019-05-10T09:24:17.272Z,93.70
2019-05-10T09:26:54.755Z,92.50
2019-05-10T09:29:21.936Z,92.30
2019-05-10T09:31:53.788Z,91.90
2019-05-10T09:34:27.183Z,91.00
2019-05-10T09:36:59.092Z,91.50
2019-05-10T09:39:32.123Z,91.30
2019-05-10T09:42:08.308Z,91.60
2019-05-10T09:44:35.797Z,90.30
2019-05-10T09:47:06.080Z,89.90
2019-05-10T09:49:37.461Z,88.90
2019-05-10T09:52:12.584Z,89.60
2019-05-10T09:54:42.601Z,85.10
2019-05-10T09:57:13.709Z,86.10
2019-05-10T09:59:42.704Z,81.90
2019-05-10T10:02:18.118Z,82.70
2019-05-10T10:04:43.533Z,80.90
2019-05-10T10:07:12.563Z,80.40
2019-05-10T10:09:44.920Z,81.90
2019-05-10T10:12:12.789Z,80.30
2019-05-10T10:14:43.320Z,84.00
2019-05-10T10:17:13.274Z,85.50
2019-05-10T10:19:43.209Z,86.00
2019-05-10T10:22:13.272Z,88.00
2019-05-10T10:24:42.948Z,90.00
2019-05-10T10:27:13.509Z,90.20
2019-05-10T10:29:42.837Z,91.60
2019-05-10T10:32:11.706Z,91.40
2019-05-10T10:34:42.961Z,91.80
2019-05-10T10:37:14.848Z,91.10
2019-05-10T10:39:47.661Z,91.00
2019-05-10T10:42:17.888Z,90.70
2019-05-10T10:44:48.808Z,89.00
2019-05-10T10:47:22.858Z,89.60
2019-05-10T10:49:49.670Z,86.80
2019-05-10T10:52:18.684Z,85.40
2019-05-10T10:54:48.006Z,85.40
2019-05-10T10:57:18.752Z,86.10
2019-05-10T10:59:48.068Z,86.30
2019-05-10T11:02:31.360Z,86.00
2019-05-10T11:04:48.983Z,87.10
2019-05-10T11:07:18.429Z,85.40
2019-05-10T11:09:47.682Z,88.20
2019-05-10T11:12:21.040Z,88.00
2019-05-10T11:14:50.185Z,88.90
2019-05-10T11:17:20.878Z,89.70
2019-05-10T11:19:50.460Z,90.00
2019-05-10T11:22:23.544Z,89.10
2019-05-10T11:25:03.097Z,89.90
2019-05-10T11:27:27.618Z,89.50
2019-05-10T11:29:57.658Z,88.50
2019-05-10T11:32:28.632Z,89.90
2019-05-10T11:34:58.233Z,90.00
2019-05-10T11:37:36.164Z,88.70
2019-05-10T11:40:02.311Z,89.40
2019-05-10T11:42:37.548Z,90.30
2019-05-10T11:45:04.802Z,90.20
2019-05-10T11:47:36.969Z,90.20
2019-05-10T11:50:07.835Z,90.10
2019-05-10T11:52:40.522Z,90.00
2019-05-10T11:55:11.489Z,90.00
2019-05-10T11:57:44.156Z,90.50
2019-05-10T12:00:24.305Z,89.20
2019-05-10T12:03:03.181Z,89.00
2019-05-10T12:05:23.456Z,90.30
2019-05-10T12:07:54.824Z,89.70
2019-05-10T12:10:25.532Z,89.40
2019-05-10T12:13:08.664Z,89.40
2019-05-10T12:15:25.964Z,88.30
2019-05-10T12:17:59.342Z,87.30
2019-05-10T12:20:41.581Z,85.70
2019-05-10T12:22:57.716Z,86.20
2019-05-10T12:25:46.224Z,86.60
2019-05-10T12:28:01.968Z,85.10
2019-05-10T12:30:35.000Z,85.00
2019-05-10T12:33:09.218Z,85.10
2019-05-10T12:35:40.868Z,82.80
2019-05-10T12:38:11.314Z,82.40
2019-05-10T12:40:45.308Z,78.80
2019-05-10T12:43:13.322Z,78.50
2019-05-10T12:45:42.540Z,79.10
2019-05-10T12:48:11.361Z,78.70
2019-05-10T12:50:44.390Z,79.60
2019-05-10T12:53:18.355Z,75.00
2019-05-10T12:55:47.383Z,73.20
2019-05-10T12:58:16.214Z,73.70
2019-05-10T13:00:54.555Z,74.60
2019-05-10T13:03:31.557Z,75.00
2019-05-10T13:05:59.117Z,77.60
2019-05-10T13:08:31.914Z,77.00
2019-05-10T13:11:00.425Z,77.30
2019-05-10T13:13:40.839Z,79.80
2019-05-10T13:16:03.675Z,79.00
2019-05-10T13:18:49.860Z,76.80
2019-05-10T13:21:03.400Z,77.90
2019-05-10T13:23:34.098Z,76.90
2019-05-10T13:26:03.856Z,75.80
2019-05-10T13:28:33.471Z,74.40
2019-05-10T13:31:05.647Z,75.50
2019-05-10T13:33:40.877Z,76.30
2019-05-10T13:36:04.687Z,77.30
2019-05-10T13:38:37.079Z,76.10
2019-05-10T13:41:07.767Z,76.40
2019-05-10T13:43:41.336Z,77.50
2019-05-10T13:46:08.006Z,77.50
2019-05-10T13:48:36.919Z,77.60
2019-05-10T13:51:20.689Z,77.20
2019-05-10T13:53:53.800Z,78.90
2019-05-10T13:56:25.531Z,78.70
2019-05-10T13:58:57.804Z,77.80
2019-05-10T14:01:27.043Z,78.20
2019-05-10T14:04:01.074Z,77.20
2019-05-10T14:06:27.194Z,77.00
2019-05-10T14:08:56.285Z,77.80
2019-05-10T14:11:27.171Z,77.70
2019-05-10T14:13:59.018Z,78.60
2019-05-10T14:16:32.802Z,76.10
2019-05-10T14:19:01.574Z,76.00
2019-05-10T14:21:38.161Z,73.50
2019-05-10T14:24:15.340Z,73.00
2019-05-10T14:26:42.498Z,70.10
2019-05-10T14:29:11.357Z,70.90
2019-05-10T14:31:41.806Z,70.30
2019-05-10T14:34:16.534Z,70.20
2019-05-10T14:36:45.678Z,71.00
2019-05-10T14:39:16.188Z,72.60
2019-05-10T14:41:51.000Z,73.70
2019-05-10T14:44:18.372Z,72.60
2019-05-10T14:46:47.216Z,73.00
2019-05-10T14:49:18.050Z,73.60
2019-05-10T14:51:58.997Z,72.30
2019-05-10T14:54:22.771Z,73.80
2019-05-10T14:56:54.080Z,72.90
2019-05-10T14:59:23.088Z,72.70
2019-05-10T15:01:51.979Z,73.10
2019-05-10T15:04:43.747Z,73.90
2019-05-10T15:06:57.035Z,72.90
2019-05-10T15:09:32.080Z,74.40
2019-05-10T15:12:10.148Z,74.00
2019-05-10T15:14:38.267Z,72.20
2019-05-10T15:17:07.023Z,71.40
2019-05-10T15:19:37.220Z,72.00
2019-05-10T15:22:09.373Z,72.30
2019-05-10T15:24:43.518Z,72.70
2019-05-10T15:27:16.221Z,72.40
2019-05-10T15:29:42.419Z,72.80
2019-05-10T15:32:16.861Z,73.00
2019-05-10T15:35:05.195Z,72.40
2019-05-10T15:37:22.951Z,72.20
2019-05-10T15:39:55.033Z,73.00
2019-05-10T15:42:30.481Z,72.40
2019-05-10T15:45:05.070Z,72.60
2019-05-10T15:47:49.631Z,71.80
2019-05-10T15:50:06.860Z,73.10
2019-05-10T15:52:39.640Z,72.50
2019-05-10T15:55:07.598Z,73.30
2019-05-10T15:57:37.743Z,73.30
2019-05-10T16:00:07.507Z,73.50
2019-05-10T16:02:37.910Z,73.80
2019-05-10T16:05:23.258Z,73.60
2019-05-10T16:07:41.432Z,73.90
2019-05-10T16:10:18.056Z,73.60
2019-05-10T16:12:50.726Z,73.60
2019-05-10T16:15:25.164Z,73.80
2019-05-10T16:17:59.715Z,74.30
2019-05-10T16:20:31.627Z,73.30
2019-05-10T16:23:02.965Z,73.50
2019-05-10T16:25:32.864Z,73.90
2019-05-10T16:30:56.448Z,75.00
2019-05-10T16:33:41.576Z,76.20
2019-05-10T16:35:59.532Z,77.00
2019-05-10T16:38:29.915Z,76.70
2019-05-10T16:41:00.696Z,77.30
2019-05-10T16:43:31.393Z,77.90
2019-05-10T16:46:03.046Z,78.80
2019-05-10T16:48:34.861Z,79.70
2019-05-10T16:51:09.848Z,80.90
2019-05-10T16:53:43.988Z,81.30
2019-05-10T16:56:13.283Z,81.90
2019-05-10T16:58:47.773Z,82.70
2019-05-10T17:01:24.819Z,83.60
2019-05-10T17:03:51.218Z,84.10
2019-05-10T17:06:20.794Z,84.60
2019-05-10T17:08:49.482Z,85.30
2019-05-10T17:11:18.884Z,85.40
2019-05-10T17:13:51.973Z,85.70
2019-05-10T17:16:20.660Z,86.60
2019-05-10T17:18:55.150Z,87.00
2019-05-10T17:21:21.532Z,87.50
2019-05-10T17:23:51.757Z,88.30
2019-05-10T17:26:21.004Z,88.80
2019-05-10T17:28:52.379Z,89.00
2019-05-10T17:31:22.318Z,89.60
2019-05-10T17:33:52.255Z,89.70
2019-05-10T17:36:23.398Z,89.90
2019-05-10T17:38:54.270Z,90.20
2019-05-10T17:41:28.524Z,90.40
2019-05-10T17:43:53.284Z,90.70
2019-05-10T17:46:23.222Z,90.90
2019-05-10T17:48:52.072Z,91.20
2019-05-10T17:51:20.817Z,91.50
2019-05-10T17:53:54.958Z,91.80
2019-05-10T17:56:21.551Z,92.10
2019-05-10T17:58:51.892Z,92.40
2019-05-10T18:01:21.806Z,92.80
2019-05-10T18:03:53.874Z,93.00
2019-05-10T18:06:24.501Z,93.10
2019-05-10T18:08:53.459Z,93.20
2019-05-10T18:11:22.268Z,93.40
2019-05-10T18:13:52.437Z,93.60
2019-05-10T18:16:28.514Z,93.90
2019-05-10T18:19:03.436Z,93.90
2019-05-10T18:21:32.118Z,94.00
2019-05-10T18:24:00.906Z,94.20
2019-05-10T18:26:34.165Z,94.40
2019-05-10T18:29:09.650Z,94.60
2019-05-10T18:31:38.311Z,94.70
2019-05-10T18:34:07.506Z,95.00
2019-05-10T18:36:51.195Z,95.10
2019-05-10T18:39:15.311Z,95.40
2019-05-10T18:41:45.955Z,95.90
2019-05-10T18:44:17.287Z,96.00
2019-05-10T18:46:48.009Z,96.20
2019-05-10T18:49:22.201Z,96.40
2019-05-10T18:51:51.960Z,96.80
2019-05-10T18:54:23.883Z,97.30
2019-05-10T18:56:52.663Z,97.30
2019-05-10T18:59:21.516Z,97.50
2019-05-10T19:01:50.337Z,97.70
2019-05-10T19:04:19.072Z,97.90
2019-05-10T19:07:07.592Z,98.20
2019-05-10T19:09:22.772Z,98.40
2019-05-10T19:11:53.850Z,98.50
2019-05-10T19:14:33.466Z,98.80
2019-05-10T19:17:03.792Z,99.00
2019-05-10T19:19:37.121Z,99.20
2019-05-10T19:22:08.977Z,99.40
2019-05-10T19:24:36.248Z,99.60
2019-05-10T19:27:09.353Z,99.90
2019-05-10T19:29:45.912Z,99.90
2019-05-10T19:32:18.355Z,99.90
2019-05-10T19:34:48.410Z,99.90
2019-05-10T19:37:27.908Z,99.90
2019-05-10T19:39:45.643Z,99.90
2019-05-10T19:42:16.334Z,99.90
2019-05-10T19:44:46.403Z,99.90
2019-05-10T19:47:20.206Z,99.90
2019-05-10T19:49:54.089Z,99.90
2019-05-10T19:52:26.091Z,99.90
2019-05-10T19:54:57.731Z,99.90
2019-05-10T19:57:30.700Z,99.90
2019-05-10T20:00:00.374Z,99.90
2019-05-10T20:02:31.557Z,99.90
2019-05-10T20:05:02.403Z,99.90
2019-05-10T20:07:45.527Z,99.90
2019-05-10T20:10:12.573Z,99.90
2019-05-10T20:12:42.653Z,99.90
2019-05-10T20:15:12.199Z,99.90
2019-05-10T20:20:33.934Z,99.90
2019-05-10T20:23:08.436Z,99.90
2019-05-10T20:25:38.678Z,99.90
2019-05-10T20:28:10.343Z,99.90
2019-05-10T20:30:40.769Z,99.90
2019-05-10T20:33:18.306Z,99.90
2019-05-10T20:35:48.137Z,99.90
2019-05-10T20:38:17.395Z,99.90
2019-05-10T20:40:48.174Z,99.90
2019-05-10T20:43:17.124Z,99.90
2019-05-10T20:45:45.872Z,99.90
2019-05-10T20:48:14.686Z,99.90
2019-05-10T20:50:43.759Z,99.90
2019-05-10T20:53:12.471Z,99.90
2019-05-10T20:55:42.705Z,99.90
2019-05-10T20:58:13.340Z,99.90
2019-05-10T21:00:46.470Z,99.90
2019-05-10T21:03:16.027Z,99.90
2019-05-10T21:05:44.815Z,99.90
2019-05-10T21:08:16.809Z,99.90
2019-05-10T21:10:45.766Z,99.90
2019-05-10T21:13:26.608Z,99.90
2019-05-10T21:15:55.272Z,99.90
2019-05-10T21:18:25.137Z,99.90
2019-05-10T21:20:53.884Z,99.90
2019-05-10T21:23:23.190Z,99.90
2019-05-10T21:25:56.743Z,99.90
2019-05-10T21:28:25.832Z,99.90
2019-05-10T21:30:54.980Z,99.90
2019-05-10T21:33:23.869Z,99.90
2019-05-10T21:35:52.643Z,99.90
2019-05-10T21:38:32.731Z,99.90
2019-05-10T21:40:53.475Z,99.90
2019-05-10T21:43:23.988Z,99.90
2019-05-10T21:48:44.635Z,99.90
2019-05-10T21:51:13.505Z,99.90
2019-05-10T21:53:43.030Z,99.90
2019-05-10T21:56:13.182Z,99.90
2019-05-10T21:58:44.438Z,99.90
2019-05-10T22:01:15.965Z,99.90
2019-05-10T22:03:47.908Z,99.90
2019-05-10T22:06:16.836Z,99.90
2019-05-10T22:08:49.469Z,99.90
2019-05-10T22:11:19.035Z,99.90
2019-05-10T22:13:48.399Z,99.90
2019-05-10T22:16:17.155Z,99.90
2019-05-10T22:18:46.037Z,99.90
2019-05-10T22:21:15.291Z,99.90
2019-05-10T22:23:45.271Z,99.90
2019-05-10T22:26:13.989Z,99.90
2019-05-10T22:28:42.760Z,99.90
2019-05-10T22:31:13.267Z,99.90
2019-05-10T22:33:42.088Z,99.90
2019-05-10T22:36:12.284Z,99.90
2019-05-10T22:38:40.929Z,99.90
2019-05-10T22:41:11.223Z,99.90
2019-05-10T22:43:40.010Z,99.90
2019-05-10T22:46:08.651Z,99.90
2019-05-10T22:48:39.170Z,99.90
2019-05-10T22:51:07.893Z,99.90
2019-05-10T22:53:39.500Z,99.90
2019-05-10T22:56:08.461Z,99.90
2019-05-10T22:58:39.984Z,99.90
2019-05-10T23:01:10.271Z,99.90
2019-05-10T23:03:38.983Z,99.90
2019-05-10T23:06:07.851Z,99.90
2019-05-10T23:08:37.221Z,99.90
2019-05-10T23:11:07.124Z,99.90
2019-05-10T23:13:36.027Z,99.90
2019-05-10T23:16:04.745Z,99.90
2019-05-10T23:18:35.882Z,99.90
2019-05-10T23:21:04.756Z,99.90
2019-05-10T23:23:33.883Z,99.90
2019-05-10T23:26:05.889Z,99.90
2019-05-10T23:28:38.236Z,99.90
2019-05-10T23:31:08.662Z,99.90
2019-05-10T23:33:39.889Z,99.90
2019-05-10T23:36:08.503Z,99.90
2019-05-10T23:38:37.722Z,99.90
2019-05-10T23:41:07.893Z,99.90
2019-05-10T23:43:36.632Z,99.90
2019-05-10T23:46:07.243Z,99.90
2019-05-10T23:48:41.737Z,99.90
2019-05-10T23:51:07.713Z,99.90
2019-05-10T23:53:36.559Z,99.90
2019-05-10T23:56:05.284Z,99.90
2019-05-10T23:58:33.971Z,99.90
